Time;durP1;ratioP1;P1;durP2;ratioP2;P2;SDS_P1;SDS_P2;PMS_P1;PMS_P2;Temp;Humidity;BMP_temperature;BMP_pressure;BME280_temperature;BME280_humidity;BME280_pressure;Samples;Min_cycle;Max_cycle;Signal;HPM_P1;HPM_P2
2022/11/03 00:01:08;;;;;;;83.80;46.13;;;;;;;8.20;100.00;98805.94;1714057;83;21056;-78
2022/11/03 00:03:34;;;;;;;94.52;48.75;;;;;;;8.16;100.00;98813.41;1714253;82;21103;-78
2022/11/03 00:06:03;;;;;;;83.67;46.70;;;;;;;8.09;100.00;98817.61;1713976;82;20919;-78
2022/11/03 00:08:35;;;;;;;89.90;46.13;;;;;;;8.02;100.00;98814.25;1713964;82;21007;-78
2022/11/03 00:11:10;;;;;;;83.45;45.15;;;;;;;7.94;100.00;98817.34;1714090;82;21016;-78
2022/11/03 00:13:37;;;;;;;80.80;46.85;;;;;;;7.86;100.00;98807.78;1714191;82;21070;-78
2022/11/03 00:16:04;;;;;;;82.60;46.05;;;;;;;7.81;100.00;98809.03;1714040;82;21250;-81
2022/11/03 00:18:30;;;;;;;73.42;41.80;;;;;;;7.75;100.00;98813.22;1714100;82;20978;-78
2022/11/03 00:20:59;;;;;;;64.72;34.80;;;;;;;7.68;100.00;98818.76;1714131;82;21544;-81
2022/11/03 00:23:26;;;;;;;;;;;;;;;7.59;100.00;98819.67;1716628;82;20998;-77
2022/11/03 00:25:52;;;;;;;60.17;31.77;;;;;;;7.54;100.00;98813.39;1714360;82;20414;-78
2022/11/03 00:28:18;;;;;;;53.28;31.27;;;;;;;7.45;100.00;98812.13;1714044;82;21852;-78
2022/11/03 00:30:44;;;;;;;55.48;30.00;;;;;;;7.39;100.00;98809.86;1714019;83;21428;-81
2022/11/03 00:33:10;;;;;;;57.95;30.90;;;;;;;7.37;100.00;98807.94;1714280;83;22287;-81
2022/11/03 00:35:36;;;;;;;60.75;30.23;;;;;;;7.32;100.00;98803.25;1718102;83;20853;-78
2022/11/03 00:38:02;;;;;;;51.33;30.30;;;;;;;7.28;100.00;98808.84;1719299;83;20932;-81
2022/11/03 00:40:27;;;;;;;56.40;30.77;;;;;;;7.24;100.00;98808.20;1719340;83;21090;-78
2022/11/03 00:42:53;;;;;;;54.93;30.95;;;;;;;7.19;100.00;98810.80;1719217;83;20915;-81
2022/11/03 00:45:19;;;;;;;53.40;30.00;;;;;;;7.08;100.00;98809.22;1719204;83;20975;-78
2022/11/03 00:50:31;;;;;;;49.10;29.05;;;;;;;6.99;100.00;98814.69;1719202;83;20944;-81
2022/11/03 00:52:57;;;;;;;40.67;25.20;;;;;;;6.96;100.00;98811.66;1668618;83;21040;-81
2022/11/03 00:55:23;;;;;;;46.90;27.10;;;;;;;6.96;100.00;98813.83;1719534;83;21594;-81
2022/11/03 00:57:51;;;;;;;44.23;25.37;;;;;;;6.94;100.00;98809.21;1719357;83;20972;-81
2022/11/03 01:00:17;;;;;;;46.70;24.90;;;;;;;6.95;100.00;98810.03;1668798;83;21011;-79
2022/11/03 01:02:43;;;;;;;47.70;27.27;;;;;;;6.96;100.00;98816.52;1719196;83;21463;-80
2022/11/03 01:07:54;;;;;;;42.33;26.60;;;;;;;6.96;100.00;98811.66;1719209;83;21430;-81
2022/11/03 01:10:19;;;;;;;45.38;26.35;;;;;;;6.91;100.00;98816.41;1719430;83;20944;-78
2022/11/03 01:12:45;;;;;;;50.03;26.02;;;;;;;6.89;100.00;98818.52;1719306;83;20936;-78
2022/11/03 01:15:11;;;;;;;45.85;26.15;;;;;;;6.87;100.00;98821.98;1719359;83;20916;-81
2022/11/03 01:17:38;;;;;;;40.52;22.10;;;;;;;6.87;100.00;98815.78;1719273;83;21088;-81
2022/11/03 01:20:05;;;;;;;45.80;22.25;;;;;;;6.87;100.00;98819.30;1668111;83;21073;-78
2022/11/03 01:22:31;;;;;;;48.05;25.70;;;;;;;6.86;100.00;98815.49;1719245;83;21051;-81
2022/11/03 01:24:57;;;;;;;41.30;22.62;;;;;;;6.82;100.00;98823.73;1719335;83;20948;-78
2022/11/03 01:27:23;;;;;;;38.83;21.17;;;;;;;6.74;100.00;98823.03;1719390;83;21150;-78
2022/11/03 01:29:49;;;;;;;35.85;21.02;;;;;;;6.66;100.00;98826.08;1719261;83;21153;-78
2022/11/03 01:32:15;;;;;;;33.13;19.87;;;;;;;6.60;100.00;98827.57;1715436;83;20884;-78
2022/11/03 01:34:41;;;;;;;41.13;22.62;;;;;;;6.50;100.00;98828.97;1716276;82;20904;-78
2022/11/03 01:37:07;;;;;;;35.15;22.30;;;;;;;6.42;100.00;98825.28;1719343;83;20888;-78
2022/11/03 01:39:32;;;;;;;43.95;21.70;;;;;;;6.39;100.00;98823.03;1719348;83;20901;-78
2022/11/03 01:41:58;;;;;;;49.23;23.90;;;;;;;6.34;100.00;98823.45;1719176;83;21124;-78
2022/11/03 01:44:28;;;;;;;35.90;20.12;;;;;;;6.29;100.00;98826.83;1718918;83;20975;-78
2022/11/03 01:47:06;;;;;;;30.15;18.55;;;;;;;6.25;100.00;98824.86;1718564;83;21000;-81
2022/11/03 01:49:46;;;;;;;31.10;20.05;;;;;;;6.25;100.00;98829.71;1719317;83;21432;-81
2022/11/03 01:52:19;;;;;;;32.67;17.62;;;;;;;6.21;100.00;98829.86;1719195;83;20976;-78
2022/11/03 01:54:49;;;;;;;25.95;16.67;;;;;;;6.21;100.00;98824.48;1719534;83;21503;-81
2022/11/03 01:57:20;;;;;;;32.35;18.57;;;;;;;6.17;100.00;98828.17;1719217;83;21039;-81
2022/11/03 01:59:45;;;;;;;28.20;17.45;;;;;;;6.13;100.00;98822.13;1719266;83;21011;-81
2022/11/03 02:02:11;;;;;;;29.50;18.27;;;;;;;6.08;100.00;98821.48;1719056;83;20857;-81
2022/11/03 02:04:37;;;;;;;30.17;15.90;;;;;;;6.03;100.00;98818.66;1719168;83;20912;-81
2022/11/03 02:07:14;;;;;;;23.30;14.83;;;;;;;5.98;100.00;98817.70;1719099;83;21208;-81
2022/11/03 02:09:40;;;;;;;29.25;13.68;;;;;;;5.96;100.00;98813.90;1719301;83;21043;-78
2022/11/03 02:12:06;;;;;;;29.57;16.32;;;;;;;5.93;100.00;98821.91;1718860;83;20896;-81
2022/11/03 02:14:35;;;;;;;26.27;14.78;;;;;;;5.92;100.00;98822.97;1719367;83;21524;-77
2022/11/03 02:17:04;;;;;;;23.77;12.63;;;;;;;5.89;100.00;98817.18;1719238;83;21536;-78
2022/11/03 02:19:38;;;;;;;25.55;14.28;;;;;;;5.88;100.00;98818.23;1719401;83;21157;-78
2022/11/03 02:22:18;;;;;;;29.92;14.20;;;;;;;5.85;100.00;98816.83;1718932;83;20996;-77
2022/11/03 02:25:06;;;;;;;24.15;13.75;;;;;;;5.87;100.00;98821.97;1719462;83;21008;-81
2022/11/03 02:27:32;;;;;;;28.90;15.97;;;;;;;5.82;100.00;98819.17;1719501;83;21016;-80
2022/11/03 02:29:58;;;;;;;27.40;15.18;;;;;;;5.74;100.00;98818.97;1719245;83;20916;-78
2022/11/03 02:32:29;;;;;;;27.58;13.78;;;;;;;5.66;100.00;98813.91;1715207;83;21262;-77
2022/11/03 02:35:06;;;;;;;28.32;14.25;;;;;;;5.56;100.00;98813.65;1713563;83;21446;-78
2022/11/03 02:37:35;;;;;;;28.30;14.95;;;;;;;5.40;100.00;98823.16;1711999;82;21522;-77
2022/11/03 02:40:09;;;;;;;32.33;15.60;;;;;;;5.31;100.00;98827.20;1712729;83;28144;-81
2022/11/03 02:42:35;;;;;;;25.70;15.93;;;;;;;5.26;100.00;98829.73;1712138;82;21010;-81
2022/11/03 02:45:04;;;;;;;25.95;12.85;;;;;;;5.20;100.00;98824.73;1712728;83;21029;-78
2022/11/03 02:47:30;;;;;;;26.05;16.27;;;;;;;5.15;100.00;98836.69;1692640;83;21092;-80
2022/11/03 02:49:56;;;;;;;34.70;15.85;;;;;;;5.04;100.00;98832.05;1712800;83;20890;-80
2022/11/03 02:52:36;;;;;;;24.55;14.53;;;;;;;5.01;100.00;98835.20;1712330;82;20918;-78
2022/11/03 02:55:07;;;;;;;23.20;14.65;;;;;;;4.96;100.00;98822.97;1704824;83;21058;-77
2022/11/03 02:57:33;;;;;;;24.75;13.13;;;;;;;4.88;100.00;98834.83;1712452;82;21948;-77
2022/11/03 03:00:04;;;;;;;26.70;14.33;;;;;;;4.83;100.00;98830.64;1712540;83;21010;-77
2022/11/03 03:02:42;;;;;;;26.33;13.80;;;;;;;4.80;100.00;98837.28;1712410;82;21030;-78
2022/11/03 03:05:10;;;;;;;21.10;12.88;;;;;;;4.84;100.00;98838.17;1712520;83;21387;-78
2022/11/03 03:07:38;;;;;;;20.68;12.25;;;;;;;4.87;100.00;98835.87;1712598;82;21021;-77
2022/11/03 03:10:17;;;;;;;23.18;14.53;;;;;;;4.88;100.00;98844.23;1712889;83;21136;-80
2022/11/03 03:12:48;;;;;;;23.12;12.95;;;;;;;4.85;100.00;98837.94;1694123;83;20981;-80
2022/11/03 03:15:14;;;;;;;28.35;11.73;;;;;;;4.81;100.00;98839.45;1712093;83;20986;-80
2022/11/03 03:17:49;;;;;;;22.22;12.40;;;;;;;4.78;100.00;98846.06;1712745;82;20988;-80
2022/11/03 03:20:31;;;;;;;20.30;11.90;;;;;;;4.79;100.00;98853.09;1677543;85;21018;-77
2022/11/03 03:23:15;;;;;;;20.23;11.38;;;;;;;4.79;100.00;98847.73;1712657;82;21156;-81
2022/11/03 03:25:46;;;;;;;20.80;11.00;;;;;;;4.78;100.00;98842.03;1712598;83;20966;-78
2022/11/03 03:28:29;;;;;;;22.87;12.80;;;;;;;4.77;100.00;98843.08;1712569;82;21018;-80
2022/11/03 03:30:56;;;;;;;22.20;10.50;;;;;;;4.77;100.00;98843.60;1669865;83;20994;-80
2022/11/03 03:33:21;;;;;;;30.85;12.58;;;;;;;4.76;100.00;98841.44;1714021;83;21061;-78
2022/11/03 03:35:49;;;;;;;22.67;12.40;;;;;;;4.70;100.00;98840.16;1718387;83;21444;-80
2022/11/03 03:38:22;;;;;;;19.92;11.43;;;;;;;4.53;100.00;98843.95;1719189;83;20973;-78
2022/11/03 03:40:51;;;;;;;17.75;12.37;;;;;;;4.46;100.00;98839.17;1719278;83;21417;-77
2022/11/03 03:43:17;;;;;;;21.90;11.90;;;;;;;4.39;100.00;98842.42;1719133;83;20977;-77
2022/11/03 03:45:43;;;;;;;22.87;11.88;;;;;;;4.34;100.00;98843.59;1719469;83;20881;-80
2022/11/03 03:48:09;;;;;;;17.60;11.12;;;;;;;4.28;100.00;98836.44;1719226;83;21378;-78
2022/11/03 03:50:37;;;;;;;21.73;10.78;;;;;;;4.24;100.00;98839.54;1690839;83;20913;-81
2022/11/03 03:53:05;;;;;;;19.82;11.75;;;;;;;4.20;100.00;98838.35;1719306;83;21020;-77
2022/11/03 03:55:38;;;;;;;16.52;11.43;;;;;;;4.20;100.00;98837.01;1719377;83;21008;-77
2022/11/03 03:58:05;;;;;;;16.87;9.10;;;;;;;4.20;100.00;98835.66;1718842;83;20992;-78
2022/11/03 04:00:31;;;;;;;18.62;10.25;;;;;;;4.25;100.00;98834.47;1719371;83;21008;-80
2022/11/03 04:03:02;;;;;;;18.32;10.60;;;;;;;4.27;100.00;98826.20;1719135;83;20968;-78
2022/11/03 04:05:25;;;;;;;19.52;11.70;;;;;;;4.30;100.00;98835.17;1717988;83;21036;-81
2022/11/03 04:07:51;;;;;;;25.95;14.60;;;;;;;4.24;100.00;98833.36;1719291;83;21000;-78
2022/11/03 04:10:21;;;;;;;20.75;10.95;;;;;;;4.19;100.00;98831.34;1719451;83;21397;-81
2022/11/03 04:23:46;;;;;;;20.68;11.95;;;;;;;3.75;100.00;98830.09;1719334;83;21495;-78
2022/11/03 04:26:15;;;;;;;27.55;11.93;;;;;;;3.74;100.00;98823.09;1719680;83;21093;-77
2022/11/03 04:28:41;;;;;;;16.32;10.98;;;;;;;3.72;100.00;98820.64;1719340;83;20956;-81
2022/11/03 04:31:15;;;;;;;22.07;12.43;;;;;;;3.74;100.00;98816.39;1718001;83;21412;-80
2022/11/03 04:33:41;;;;;;;19.73;10.93;;;;;;;3.74;100.00;98811.03;1714179;83;21408;-80
2022/11/03 04:36:19;;;;;;;21.42;11.75;;;;;;;3.74;100.00;98811.85;1712625;83;21027;-77
2022/11/03 04:38:45;;;;;;;21.25;11.00;;;;;;;3.73;100.00;98818.25;1712814;82;21325;-80
2022/11/03 04:41:18;;;;;;;26.00;12.75;;;;;;;3.71;100.00;98812.81;1692170;83;20914;-81
2022/11/03 04:43:45;;;;;;;21.50;11.97;;;;;;;3.68;100.00;98816.23;1712563;82;21006;-80
2022/11/03 04:46:23;;;;;;;22.32;12.43;;;;;;;3.64;100.00;98812.84;1712765;83;21467;-77
2022/11/03 04:48:48;;;;;;;26.35;14.15;;;;;;;3.60;100.00;98815.15;1711570;82;21054;-77
2022/11/03 04:51:17;;;;;;;24.75;13.22;;;;;;;3.55;100.00;98809.60;1712712;83;21175;-78
2022/11/03 04:53:56;;;;;;;21.62;12.37;;;;;;;3.49;100.00;98812.31;1711629;82;21041;-77
2022/11/03 04:56:23;;;;;;;25.65;11.95;;;;;;;3.37;100.00;98802.80;1712713;83;21034;-77
2022/11/03 04:58:50;;;;;;;22.13;13.45;;;;;;;3.25;100.00;98809.88;1712578;82;20998;-80
2022/11/03 05:01:20;;;;;;;16.37;10.72;;;;;;;3.16;100.00;98804.44;1692345;83;21073;-80
2022/11/03 05:03:48;;;;;;;23.57;12.28;;;;;;;3.08;100.00;98799.65;1712586;82;21164;-77
2022/11/03 05:06:18;;;;;;;17.73;11.60;;;;;;;3.01;100.00;98805.55;1691964;83;21577;-80
2022/11/03 05:08:48;;;;;;;20.45;12.73;;;;;;;2.98;100.00;98805.13;1712639;82;21427;-80
2022/11/03 05:11:20;;;;;;;15.72;11.10;;;;;;;2.97;100.00;98806.16;1712180;83;21100;-80
2022/11/03 05:13:46;;;;;;;19.02;10.28;;;;;;;2.97;100.00;98803.48;1711458;82;21010;-77
2022/11/03 05:16:11;;;;;;;17.65;10.60;;;;;;;2.92;100.00;98805.48;1712827;83;20985;-80
2022/11/03 05:18:41;;;;;;;19.02;10.10;;;;;;;2.83;100.00;98802.73;1712495;82;20886;-78
2022/11/03 05:21:10;;;;;;;21.90;10.25;;;;;;;2.83;100.00;98802.73;1712546;83;21034;-80
2022/11/03 05:23:39;;;;;;;19.12;11.55;;;;;;;2.74;100.00;98809.34;1712723;82;21006;-77
2022/11/03 05:26:08;;;;;;;25.90;12.70;;;;;;;2.68;100.00;98806.98;1712534;83;21076;-77
2022/11/03 05:28:36;;;;;;;19.15;11.38;;;;;;;2.64;100.00;98808.41;1712247;82;21714;-80
2022/11/03 05:31:19;;;;;;;21.87;12.23;;;;;;;2.61;100.00;98808.02;1719516;82;21013;-78
2022/11/03 05:33:46;;;;;;;28.65;14.28;;;;;;;2.56;100.00;98809.97;1738732;81;21448;-77
2022/11/03 05:36:14;;;;;;;27.77;15.10;;;;;;;2.49;100.00;98808.67;1713972;83;21485;-80
2022/11/03 05:38:40;;;;;;;38.63;19.48;;;;;;;2.47;100.00;98817.91;1703839;83;21553;-77
2022/11/03 05:41:17;;;;;;;38.78;20.40;;;;;;;2.43;100.00;98812.69;1714183;83;21176;-77
2022/11/03 05:43:43;;;;;;;43.98;16.40;;;;;;;2.43;100.00;98821.53;1713823;83;21026;-80
2022/11/03 05:46:09;;;;;;;30.97;15.78;;;;;;;2.43;100.00;98818.04;1714189;83;20964;-77
2022/11/03 05:48:40;;;;;;;41.23;17.92;;;;;;;2.38;100.00;98821.32;1714131;83;20859;-79
2022/11/03 05:51:21;;;;;;;41.92;18.48;;;;;;;2.38;100.00;98819.98;1714289;82;21021;-80
2022/11/03 05:53:50;;;;;;;29.40;14.13;;;;;;;2.39;100.00;98814.94;1714120;82;21217;-80
2022/11/03 05:56:19;;;;;;;23.90;13.22;;;;;;;2.37;100.00;98821.53;1713998;83;21009;-77
2022/11/03 05:58:45;;;;;;;28.10;13.70;;;;;;;2.33;100.00;98827.83;1713498;82;21001;-80
2022/11/03 06:01:31;;;;;;;23.73;12.60;;;;;;;2.34;100.00;98821.44;1709876;82;20993;-77
2022/11/03 06:04:27;;;;;;;28.77;13.78;;;;;;;2.29;100.00;98824.42;1704411;83;20981;-80
2022/11/03 06:06:55;;;;;;;27.07;13.88;;;;;;;2.28;100.00;98831.62;1712594;83;20958;-81
2022/11/03 06:09:23;;;;;;;27.65;13.22;;;;;;;2.32;100.00;98833.39;1713904;83;21001;-80
2022/11/03 06:11:56;;;;;;;22.55;13.15;;;;;;;2.36;100.00;98831.93;1713929;82;21029;-80
2022/11/03 06:14:24;;;;;;;29.52;16.42;;;;;;;2.39;100.00;98828.31;1713677;83;21017;-80
2022/11/03 06:17:06;;;;;;;26.40;15.45;;;;;;;2.44;100.00;98822.35;1711716;83;21063;-80
2022/11/03 06:19:41;;;;;;;30.80;16.48;;;;;;;2.51;100.00;98817.30;1709558;84;21012;-77
2022/11/03 06:22:29;;;;;;;38.42;21.12;;;;;;;2.62;100.00;98821.70;1709478;84;21002;-80
2022/11/03 06:25:19;;;;;;;36.73;21.60;;;;;;;2.77;100.00;98816.94;1709773;83;21016;-78
2022/11/03 06:27:45;;;;;;;35.15;19.52;;;;;;;2.93;100.00;98811.13;1709048;83;20977;-81
2022/11/03 06:30:23;;;;;;;34.38;20.05;;;;;;;3.07;100.00;98819.41;1709650;84;20949;-77
2022/11/03 06:32:49;;;;;;;32.70;20.40;;;;;;;3.21;100.00;98825.54;1736375;81;21850;-77
2022/11/03 06:35:15;;;;;;;42.30;21.75;;;;;;;3.32;100.00;98819.50;1694332;82;20877;-77
2022/11/03 06:37:40;;;;;;;33.20;17.40;;;;;;;3.46;100.00;98820.79;1709270;82;21540;-77
2022/11/03 06:40:18;;;;;;;38.17;17.90;;;;;;;3.55;100.00;98823.00;1701560;82;20870;-77
2022/11/03 06:42:44;;;;;;;27.98;16.37;;;;;;;3.55;100.00;98821.66;1710265;82;21013;-80
2022/11/03 06:45:15;;;;;;;31.15;17.37;;;;;;;3.52;100.00;98818.08;1714339;83;20917;-77
2022/11/03 06:47:41;;;;;;;27.85;15.40;;;;;;;3.52;100.00;98818.60;1713990;82;20978;-77
2022/11/03 06:50:29;;;;;;;33.48;14.47;;;;;;;3.58;100.00;98830.60;1714127;83;20937;-81
2022/11/03 06:52:56;;;;;;;30.67;17.23;;;;;;;3.59;100.00;98826.06;1714212;82;21041;-77
2022/11/03 06:55:29;;;;;;;32.78;16.32;;;;;;;3.66;100.00;98828.19;1713967;83;21438;-77
2022/11/03 06:58:03;;;;;;;32.83;17.98;;;;;;;3.74;100.00;98821.75;1714040;82;21446;-77
2022/11/03 07:00:30;;;;;;;31.30;17.50;;;;;;;3.84;100.00;98820.75;1704450;82;21449;-77
2022/11/03 07:03:26;;;;;;;33.78;17.40;;;;;;;3.93;100.00;98820.79;1698106;82;22031;-76
2022/11/03 07:06:11;;;;;;;35.17;17.40;;;;;;;4.04;100.00;98813.41;1682361;82;21049;-76
2022/11/03 07:08:41;;;;;;;39.40;19.20;;;;;;;4.17;100.00;98815.96;1672683;84;21072;-76
2022/11/03 07:11:24;;;;;;;39.98;19.95;;;;;;;4.28;100.00;98809.61;1698345;82;21022;-76
2022/11/03 07:14:04;;;;;;;37.40;18.05;;;;;;;4.46;100.00;98817.70;1716745;82;21042;-76
2022/11/03 07:16:42;;;;;;;39.08;19.40;;;;;;;4.61;100.00;98818.14;1696835;82;20999;-80
2022/11/03 07:19:22;;;;;;;43.38;19.45;;;;;;;4.78;100.00;98810.33;1710102;82;21354;-76
2022/11/03 07:21:51;;;;;;;31.25;15.93;;;;;;;4.94;100.00;98809.74;1705014;82;21140;-76
2022/11/03 07:24:33;;;;;;;32.90;15.20;;;;;;;5.12;100.00;98806.75;1703239;82;21149;-82
2022/11/03 07:27:20;;;;;;;31.62;16.05;;;;;;;5.20;100.00;98799.20;1707616;82;21453;-81
2022/11/03 07:29:47;;;;;;;28.47;16.20;;;;;;;5.28;100.00;98793.52;1689975;82;21199;-81
2022/11/03 07:32:21;;;;;;;29.05;16.17;;;;;;;5.25;100.00;98789.13;1705367;82;21045;-77
2022/11/03 07:34:47;;;;;;;51.50;30.23;;;;;;;5.32;100.00;98785.31;1706829;82;21375;-76
2022/11/03 07:37:17;;;;;;;26.48;15.32;;;;;;;5.41;100.00;98779.10;1709036;82;21787;-75
2022/11/03 07:39:43;;;;;;;23.73;14.10;;;;;;;5.49;100.00;98780.66;1698128;82;21032;-82
2022/11/03 07:42:16;;;;;;;27.50;15.35;;;;;;;5.64;100.00;98777.84;1700826;82;20937;-80
2022/11/03 07:44:42;;;;;;;23.55;12.65;;;;;;;5.68;100.00;98776.03;1703246;82;21049;-77
2022/11/03 07:47:13;;;;;;;28.67;13.53;;;;;;;5.69;100.00;98769.59;1701036;82;20894;-79
2022/11/03 07:49:39;;;;;;;28.65;17.45;;;;;;;5.65;100.00;98770.59;1697921;82;21426;-82
2022/11/03 07:52:08;;;;;;;29.57;16.42;;;;;;;5.67;100.00;98764.46;1703847;82;20936;-82
2022/11/03 07:54:34;;;;;;;31.68;17.57;;;;;;;5.74;100.00;98765.19;1696787;83;21001;-79
2022/11/03 07:57:03;;;;;;;24.32;15.88;;;;;;;5.79;100.00;98758.57;1694123;83;20929;-79
2022/11/03 07:59:49;;;;;;;23.00;14.80;;;;;;;5.85;100.00;98752.28;1705852;82;21014;-82
2022/11/03 08:02:36;;;;;;;27.35;16.02;;;;;;;5.93;100.00;98748.46;1710593;82;21117;-82
2022/11/03 08:05:02;;;;;;;25.05;16.30;;;;;;;5.94;100.00;98738.81;1696753;82;21143;-82
2022/11/03 08:07:29;;;;;;;35.83;21.55;;;;;;;6.03;100.00;98735.78;1709860;82;21135;-82
2022/11/03 08:09:55;;;;;;;39.18;23.73;;;;;;;6.12;100.00;98730.34;1708798;82;21151;-79
2022/11/03 08:12:21;;;;;;;33.73;20.30;;;;;;;6.12;100.00;98728.47;1706268;82;20976;-79
2022/11/03 08:14:46;;;;;;;25.10;17.40;;;;;;;6.19;100.00;98721.63;1706225;82;21107;-82
2022/11/03 08:17:13;;;;;;;30.72;17.30;;;;;;;6.23;100.00;98720.91;1709250;82;20998;-82
2022/11/03 08:19:39;;;;;;;56.35;21.73;;;;;;;6.33;100.00;98716.84;1705095;82;21152;-79
2022/11/03 08:22:05;;;;;;;49.40;20.52;;;;;;;6.43;100.00;98710.33;1703069;82;21439;-79
2022/11/03 08:24:31;;;;;;;30.23;18.75;;;;;;;6.55;100.00;98699.53;1726451;82;20974;-79
2022/11/03 08:26:57;;;;;;;33.80;19.42;;;;;;;6.67;100.00;98699.00;1709774;82;21254;-82
2022/11/03 08:29:26;;;;;;;33.18;19.80;;;;;;;6.79;100.00;98684.96;1706427;82;20973;-79
2022/11/03 08:31:50;;;;;;;33.70;18.23;;;;;;;6.89;100.00;98687.85;1702420;82;21014;-79
2022/11/03 08:34:16;;;;;;;40.75;21.05;;;;;;;6.99;100.00;98687.23;1695559;82;21445;-79
2022/11/03 08:36:42;;;;;;;40.00;20.15;;;;;;;7.11;100.00;98688.02;1706540;82;20917;-83
2022/11/03 08:39:08;;;;;;;35.52;18.07;;;;;;;7.23;100.00;98674.47;1689637;82;21860;-79
2022/11/03 08:41:34;;;;;;;33.00;18.98;;;;;;;7.38;100.00;98674.75;1695158;82;21091;-82
2022/11/03 08:44:00;;;;;;;30.35;16.97;;;;;;;7.50;100.00;98666.05;1703111;82;21095;-79
2022/11/03 08:46:26;;;;;;;31.07;17.87;;;;;;;7.63;100.00;98661.70;1698006;82;20875;-82
2022/11/03 08:48:52;;;;;;;29.02;16.50;;;;;;;7.80;100.00;98652.27;1708215;82;21084;-82
2022/11/03 08:51:18;;;;;;;36.45;17.00;;;;;;;7.96;100.00;98645.22;1708825;82;22268;-79
2022/11/03 08:53:45;;;;;;;32.35;16.27;;;;;;;8.09;100.00;98643.50;1709174;80;20965;-79
2022/11/03 08:56:11;;;;;;;37.17;17.12;;;;;;;8.24;100.00;98636.70;1708827;82;21515;-80
2022/11/03 08:58:37;;;;;;;21.68;13.78;;;;;;;8.42;100.00;98632.38;1704168;82;21010;-82
2022/11/03 09:01:03;;;;;;;23.67;14.63;;;;;;;8.58;100.00;98627.98;1707273;82;20985;-79
2022/11/03 09:03:29;;;;;;;22.73;13.22;;;;;;;8.65;100.00;98618.62;1704527;82;21604;-82
2022/11/03 09:05:55;;;;;;;22.35;13.62;;;;;;;8.78;100.00;98619.28;1702405;82;20903;-79
2022/11/03 09:08:21;;;;;;;23.10;13.40;;;;;;;8.89;100.00;98622.41;1704249;82;21039;-82
2022/11/03 09:10:47;;;;;;;24.85;13.03;;;;;;;8.99;100.00;98615.75;1702293;82;20902;-79
2022/11/03 09:13:13;;;;;;;25.77;13.78;;;;;;;9.08;100.00;98618.27;1721475;80;21004;-79
2022/11/03 09:15:39;;;;;;;25.80;12.50;;;;;;;9.18;100.00;98614.84;1703254;82;21653;-82
2022/11/03 09:18:04;;;;;;;22.50;12.73;;;;;;;9.27;100.00;98611.41;1705629;82;21669;-79
2022/11/03 09:20:30;;;;;;;24.25;12.93;;;;;;;9.39;100.00;98620.70;1725245;82;21645;-83
2022/11/03 09:22:56;;;;;;;25.15;11.78;;;;;;;9.48;100.00;98616.45;1699996;82;20891;-82
2022/11/03 09:25:22;;;;;;;21.33;11.55;;;;;;;9.59;100.00;98610.07;1704277;82;21686;-79
2022/11/03 09:27:48;;;;;;;24.87;11.97;;;;;;;9.72;100.00;98607.98;1704705;82;21366;-79
2022/11/03 09:30:14;;;;;;;18.42;9.88;;;;;;;9.86;100.00;98609.98;1709575;82;20886;-79
2022/11/03 09:32:40;;;;;;;17.62;9.75;;;;;;;10.00;100.00;98604.10;1704971;82;21139;-79
2022/11/03 09:35:08;;;;;;;21.33;9.30;;;;;;;10.19;100.00;98608.03;1707486;83;20945;-79
2022/11/03 09:37:34;;;;;;;17.17;9.25;;;;;;;10.40;100.00;98600.83;1702037;82;21120;-82
2022/11/03 09:40:01;;;;;;;18.55;9.75;;;;;;;10.58;100.00;98597.66;1699996;82;21942;-80
2022/11/03 09:42:27;;;;;;;15.13;8.75;;;;;;;10.68;100.00;98592.80;1702365;82;21195;-83
2022/11/03 09:44:53;;;;;;;16.85;8.73;;;;;;;10.75;100.00;98593.38;1704676;83;20901;-79
2022/11/03 09:47:32;;;;;;;17.45;8.93;;;;;;;10.83;100.00;98582.55;1706109;82;21135;-79
2022/11/03 09:49:58;;;;;;;13.30;7.17;;;;;;;10.87;100.00;98579.05;1704666;82;21008;-83
2022/11/03 09:52:24;;;;;;;17.77;8.23;;;;;;;10.92;100.00;98576.34;1710405;82;21359;-83
2022/11/03 09:54:53;;;;;;;14.28;7.67;;;;;;;10.95;100.00;98571.75;1714016;82;20858;-80
2022/11/03 09:57:19;;;;;;;15.72;8.30;;;;;;;11.01;98.07;98563.88;1704428;82;20992;-83
2022/11/03 09:59:47;;;;;;;10.48;5.85;;;;;;;11.12;100.00;98562.56;1709511;82;20954;-80
2022/11/03 10:02:30;;;;;;;11.83;6.93;;;;;;;11.18;95.01;98556.84;1702042;82;21088;-80
2022/11/03 10:04:58;;;;;;;13.18;6.97;;;;;;;11.28;97.06;98558.23;1707486;82;21175;-80
2022/11/03 10:07:25;;;;;;;;;;;;;;;11.37;100.00;98558.50;1713335;82;21490;-79
2022/11/03 10:09:51;;;;;;;11.20;6.22;;;;;;;11.45;97.04;98555.24;1692236;83;20163;-83
2022/11/03 10:12:17;;;;;;;14.90;7.28;;;;;;;11.49;93.81;98563.09;1706082;82;20999;-83
2022/11/03 10:14:43;;;;;;;12.88;7.33;;;;;;;11.56;91.96;98558.75;1711106;82;21627;-80
2022/11/03 10:17:18;;;;;;;13.13;5.72;;;;;;;11.66;91.74;98551.14;1658950;84;21136;-83
2022/11/03 10:19:50;;;;;;;14.00;5.72;;;;;;;11.73;95.89;98542.17;1706942;82;21101;-79
2022/11/03 10:22:16;;;;;;;12.50;5.67;;;;;;;11.80;96.20;98535.41;1698701;82;20978;-80
2022/11/03 10:24:42;;;;;;;10.95;5.92;;;;;;;11.94;94.01;98535.63;1703063;82;20883;-83
2022/11/03 10:27:22;;;;;;;12.60;6.15;;;;;;;12.01;93.34;98526.66;1718173;82;20967;-83
2022/11/03 10:30:09;;;;;;;14.80;4.67;;;;;;;12.01;90.53;98528.01;1709368;82;21908;-83
2022/11/03 10:32:35;;;;;;;9.23;4.95;;;;;;;12.10;93.89;98525.53;1648125;85;21135;-82
2022/11/03 10:35:03;;;;;;;10.32;4.95;;;;;;;12.17;93.95;98517.09;1707242;82;21067;-79
2022/11/03 10:37:29;;;;;;;13.65;5.65;;;;;;;12.19;93.27;98509.47;1692317;82;20985;-83
2022/11/03 10:39:57;;;;;;;9.03;4.45;;;;;;;12.22;92.50;98510.27;1707284;82;21592;-83
2022/11/03 10:42:29;;;;;;;7.45;4.40;;;;;;;12.26;93.42;98501.84;1705963;82;22079;-83
2022/11/03 10:45:18;;;;;;;7.85;4.75;;;;;;;12.29;93.94;98504.80;1704376;82;21427;-83
2022/11/03 10:47:44;;;;;;;9.23;4.97;;;;;;;12.35;93.34;98498.80;1712961;82;21067;-80
2022/11/03 10:50:24;;;;;;;18.30;5.83;;;;;;;12.43;87.98;98494.14;1708791;82;20937;-79
2022/11/03 10:52:50;;;;;;;9.68;4.60;;;;;;;12.49;90.40;98492.22;1709180;82;22069;-80
2022/11/03 10:55:17;;;;;;;7.62;5.08;;;;;;;12.55;91.01;98481.56;1706301;82;21034;-83
2022/11/03 10:57:43;;;;;;;13.62;4.67;;;;;;;12.58;89.85;98476.40;1711922;82;21049;-83
2022/11/03 11:00:17;;;;;;;10.35;5.50;;;;;;;12.68;88.95;98463.28;1719290;82;21357;-83
2022/11/03 11:02:45;;;;;;;11.25;5.05;;;;;;;12.82;88.07;98464.28;1683451;82;21465;-83
2022/11/03 11:05:18;;;;;;;7.45;4.42;;;;;;;12.94;86.84;98456.55;1705934;82;21496;-80
2022/11/03 11:07:44;;;;;;;10.32;4.90;;;;;;;12.99;87.92;98446.20;1703245;82;21138;-79
2022/11/03 11:10:18;;;;;;;9.60;5.22;;;;;;;12.99;86.52;98444.84;1702926;82;20961;-80
2022/11/03 11:13:24;;;;;;;8.48;4.28;;;;;;;13.05;87.29;98440.14;1702019;82;21057;-79
2022/11/03 11:15:50;;;;;;;12.37;4.67;;;;;;;13.10;86.60;98439.56;1702267;82;21079;-79
2022/11/03 11:18:34;;;;;;;11.65;4.25;;;;;;;13.22;83.22;98432.40;1702080;82;21012;-79
2022/11/03 11:21:00;;;;;;;8.20;4.00;;;;;;;13.30;83.41;98429.05;1697625;82;21082;-80
2022/11/03 11:23:35;;;;;;;9.93;4.55;;;;;;;13.31;85.09;98429.86;1695090;82;21530;-79
2022/11/03 11:26:29;;;;;;;10.03;4.65;;;;;;;13.37;82.83;98423.28;1707894;82;21548;-79
2022/11/03 11:29:14;;;;;;;10.93;3.80;;;;;;;13.43;82.30;98412.06;1694394;82;21079;-80
2022/11/03 11:31:55;;;;;;;8.13;3.95;;;;;;;13.49;79.60;98405.98;1710619;82;21012;-80
2022/11/03 11:34:26;;;;;;;8.60;3.72;;;;;;;13.53;82.41;98401.61;1697677;82;21089;-79
2022/11/03 11:36:58;;;;;;;7.00;4.28;;;;;;;13.54;78.41;98399.14;1674333;84;21040;-80
2022/11/03 11:39:34;;;;;;;11.48;4.10;;;;;;;13.56;80.25;98398.30;1651002;84;21090;-80
2022/11/03 11:42:13;;;;;;;11.03;3.80;;;;;;;13.57;79.47;98389.02;1703908;82;20973;-80
2022/11/03 11:44:45;;;;;;;9.55;4.67;;;;;;;13.63;79.22;98387.87;1700933;82;21083;-79
2022/11/03 11:47:34;;;;;;;9.70;3.80;;;;;;;13.64;78.62;98380.52;1701539;82;21948;-83
2022/11/03 11:50:12;;;;;;;6.37;4.15;;;;;;;13.62;71.63;98380.00;1693943;82;20994;-84